createdAt,value
2019-02-02T00:02:28.265Z,91.20
2019-02-02T00:04:59.014Z,91.40
2019-02-02T00:07:29.566Z,91.30
2019-02-02T00:10:00.347Z,91.30
2019-02-02T00:12:31.021Z,91.30
2019-02-02T00:15:01.985Z,91.30
2019-02-02T00:17:32.857Z,91.40
2019-02-02T00:20:03.530Z,91.50
2019-02-02T00:22:34.268Z,91.30
2019-02-02T00:25:05.021Z,91.60
2019-02-02T00:27:41.647Z,91.60
2019-02-02T00:30:09.610Z,91.50
2019-02-02T00:32:40.624Z,92.00
2019-02-02T00:35:11.141Z,91.60
2019-02-02T00:37:41.526Z,91.60
2019-02-02T00:40:12.083Z,91.80
2019-02-02T00:42:42.654Z,91.90
2019-02-02T00:45:13.322Z,91.90
2019-02-02T00:47:43.845Z,92.10
2019-02-02T00:50:14.541Z,92.00
2019-02-02T00:52:44.835Z,91.90
2019-02-02T00:55:15.444Z,91.90
2019-02-02T00:57:53.545Z,92.00
2019-02-02T01:00:20.116Z,91.90
2019-02-02T01:02:50.630Z,92.40
2019-02-02T01:05:21.170Z,92.00
2019-02-02T01:07:51.733Z,92.20
2019-02-02T01:10:25.101Z,92.10
2019-02-02T01:12:55.625Z,92.20
2019-02-02T01:15:26.034Z,92.30
2019-02-02T01:17:56.623Z,92.30
2019-02-02T01:20:26.973Z,92.40
2019-02-02T01:22:57.432Z,92.40
2019-02-02T01:25:28.285Z,92.30
2019-02-02T01:28:05.422Z,92.30
2019-02-02T01:30:31.203Z,92.40
2019-02-02T01:33:01.804Z,92.30
2019-02-02T01:35:32.551Z,92.30
2019-02-02T01:38:03.476Z,92.70
2019-02-02T01:40:36.145Z,92.40
2019-02-02T01:43:06.821Z,92.40
2019-02-02T01:45:37.481Z,92.60
2019-02-02T01:48:08.137Z,92.60
2019-02-02T01:50:39.195Z,92.50
2019-02-02T01:53:09.787Z,92.50
2019-02-02T01:55:40.821Z,92.50
2019-02-02T01:58:16.789Z,92.60
2019-02-02T02:00:43.713Z,92.60
2019-02-02T02:03:14.451Z,92.90
2019-02-02T02:05:45.256Z,92.90
2019-02-02T02:08:15.777Z,93.00
2019-02-02T02:10:46.448Z,93.00
2019-02-02T02:13:17.243Z,93.10
2019-02-02T02:15:47.881Z,93.10
2019-02-02T02:18:18.487Z,93.30
2019-02-02T02:20:49.004Z,93.40
2019-02-02T02:23:19.652Z,93.40
2019-02-02T02:25:50.181Z,93.60
2019-02-02T02:28:27.846Z,93.60
2019-02-02T02:30:52.810Z,93.60
2019-02-02T02:33:23.476Z,93.70
2019-02-02T02:35:53.919Z,93.60
2019-02-02T02:38:24.492Z,94.70
2019-02-02T02:40:55.369Z,93.90
2019-02-02T02:43:26.179Z,94.00
2019-02-02T02:45:56.843Z,94.70
2019-02-02T02:48:27.778Z,95.40
2019-02-02T02:50:58.186Z,94.40
2019-02-02T02:53:28.781Z,95.30
2019-02-02T02:55:59.505Z,96.20
2019-02-02T02:58:40.834Z,95.90
2019-02-02T03:01:02.369Z,95.40
2019-02-02T03:03:32.943Z,95.00
2019-02-02T03:06:03.617Z,94.70
2019-02-02T03:08:34.335Z,93.90
2019-02-02T03:11:04.660Z,94.20
2019-02-02T03:13:35.337Z,93.10
2019-02-02T03:16:05.837Z,93.30
2019-02-02T03:18:36.778Z,93.80
2019-02-02T03:21:07.397Z,94.20
2019-02-02T03:23:38.012Z,95.20
2019-02-02T03:26:08.623Z,94.70
2019-02-02T03:28:39.537Z,95.00
2019-02-02T03:31:09.808Z,95.50
2019-02-02T03:33:40.298Z,95.40
2019-02-02T03:36:10.653Z,95.50
2019-02-02T03:38:40.933Z,95.50
2019-02-02T03:41:12.053Z,96.20
2019-02-02T03:43:42.736Z,96.30
2019-02-02T03:46:14.819Z,95.70
2019-02-02T03:48:45.576Z,95.20
2019-02-02T03:51:15.860Z,94.80
2019-02-02T03:53:46.272Z,94.50
2019-02-02T03:56:17.615Z,94.30
2019-02-02T03:58:48.619Z,94.20
2019-02-02T04:01:19.239Z,93.90
2019-02-02T04:03:49.692Z,93.80
2019-02-02T04:06:20.205Z,93.80
2019-02-02T04:08:51.084Z,93.60
2019-02-02T04:11:21.561Z,93.50
2019-02-02T04:13:52.984Z,93.30
2019-02-02T04:16:23.257Z,93.10
2019-02-02T04:18:54.508Z,93.00
2019-02-02T04:21:24.792Z,92.90
2019-02-02T04:23:55.341Z,92.80
2019-02-02T04:26:25.894Z,92.60
2019-02-02T04:28:56.327Z,92.60
2019-02-02T04:31:27.047Z,92.50
2019-02-02T04:33:57.592Z,92.40
2019-02-02T04:36:28.234Z,92.30
2019-02-02T04:38:58.981Z,92.30
2019-02-02T04:41:29.688Z,92.20
2019-02-02T04:44:00.324Z,92.20
2019-02-02T04:46:31.721Z,92.00
2019-02-02T04:49:02.456Z,92.00
2019-02-02T04:51:33.266Z,92.00
2019-02-02T04:54:03.669Z,92.00
2019-02-02T04:56:34.711Z,92.40
2019-02-02T04:59:05.957Z,91.90
2019-02-02T05:01:36.470Z,91.90
2019-02-02T05:04:07.119Z,91.90
2019-02-02T05:06:37.617Z,91.90
2019-02-02T05:09:08.756Z,91.90
2019-02-02T05:11:39.594Z,91.90
2019-02-02T05:14:10.245Z,91.90
2019-02-02T05:16:40.913Z,91.90
2019-02-02T05:19:11.602Z,91.90
2019-02-02T05:21:42.389Z,91.90
2019-02-02T05:24:12.810Z,91.80
2019-02-02T05:26:43.467Z,91.90
2019-02-02T05:29:14.620Z,91.90
2019-02-02T05:31:45.099Z,91.80
2019-02-02T05:34:16.486Z,91.80
2019-02-02T05:36:47.183Z,91.70
2019-02-02T05:39:17.483Z,91.80
2019-02-02T05:41:48.131Z,92.00
2019-02-02T05:44:21.482Z,91.80
2019-02-02T05:46:52.020Z,91.80
2019-02-02T05:49:22.491Z,91.90
2019-02-02T05:51:53.096Z,92.00
2019-02-02T05:54:23.834Z,92.10
2019-02-02T05:56:54.303Z,92.10
2019-02-02T05:59:24.874Z,92.10
2019-02-02T06:01:55.320Z,92.10
2019-02-02T06:04:25.645Z,92.40
2019-02-02T06:06:56.301Z,92.10
2019-02-02T06:09:29.350Z,92.00
2019-02-02T06:11:59.754Z,92.10
2019-02-02T06:14:30.185Z,92.10
2019-02-02T06:17:00.772Z,92.00
2019-02-02T06:19:31.450Z,92.00
2019-02-02T06:22:02.024Z,92.00
2019-02-02T06:24:33.207Z,91.90
2019-02-02T06:27:03.697Z,91.90
2019-02-02T06:29:34.273Z,91.90
2019-02-02T06:32:11.833Z,92.00
2019-02-02T06:34:37.494Z,91.90
2019-02-02T06:37:09.548Z,91.90
2019-02-02T06:39:39.998Z,91.80
2019-02-02T06:42:10.651Z,91.80
2019-02-02T06:44:41.234Z,91.70
2019-02-02T06:47:12.325Z,91.70
2019-02-02T06:49:42.717Z,91.80
2019-02-02T06:52:13.192Z,91.80
2019-02-02T06:54:43.597Z,91.80
2019-02-02T06:57:13.933Z,91.80
2019-02-02T06:59:44.443Z,91.80
2019-02-02T07:02:15.087Z,91.80
2019-02-02T07:04:45.607Z,91.80
2019-02-02T07:07:16.823Z,91.90
2019-02-02T07:09:47.796Z,91.90
2019-02-02T07:12:18.612Z,91.70
2019-02-02T07:14:49.268Z,91.70
2019-02-02T07:17:20.110Z,91.70
2019-02-02T07:19:50.645Z,91.70
2019-02-02T07:22:21.100Z,91.60
2019-02-02T07:24:51.604Z,91.50
2019-02-02T07:27:21.899Z,91.50
2019-02-02T07:29:52.484Z,91.40
2019-02-02T07:32:22.921Z,91.30
2019-02-02T07:34:53.487Z,91.20
2019-02-02T07:37:24.587Z,91.00
2019-02-02T07:39:55.228Z,91.00
2019-02-02T07:42:28.117Z,90.90
2019-02-02T07:45:00.656Z,90.80
2019-02-02T07:47:31.381Z,90.60
2019-02-02T07:50:27.615Z,90.50
2019-02-02T07:52:58.468Z,90.40
2019-02-02T07:55:29.222Z,90.30
2019-02-02T07:58:00.480Z,90.30
2019-02-02T08:00:40.820Z,90.30
2019-02-02T08:03:12.336Z,90.30
2019-02-02T08:05:43.048Z,90.20
2019-02-02T08:08:13.790Z,90.20
2019-02-02T08:10:48.352Z,90.40
2019-02-02T08:13:18.827Z,90.40
2019-02-02T08:15:49.166Z,90.50
2019-02-02T08:18:19.887Z,90.30
2019-02-02T08:20:50.570Z,90.30
2019-02-02T08:23:21.028Z,90.10
2019-02-02T08:25:51.740Z,90.00
2019-02-02T08:28:22.142Z,89.80
2019-02-02T08:30:52.934Z,89.90
2019-02-02T08:33:23.379Z,89.70
2019-02-02T08:35:54.492Z,89.20
2019-02-02T08:38:24.876Z,88.00
2019-02-02T08:40:55.371Z,87.80
2019-02-02T08:43:25.863Z,87.50
2019-02-02T08:45:56.776Z,87.30
2019-02-02T08:48:27.508Z,87.20
2019-02-02T08:50:58.124Z,87.10
2019-02-02T08:53:28.786Z,87.10
2019-02-02T08:55:59.326Z,86.90
2019-02-02T08:58:29.906Z,86.70
2019-02-02T09:01:04.225Z,86.60
2019-02-02T09:03:32.466Z,86.30
2019-02-02T09:06:03.819Z,85.90
2019-02-02T09:08:34.344Z,85.60
2019-02-02T09:11:04.823Z,85.20
2019-02-02T09:13:36.819Z,84.60
2019-02-02T09:16:07.676Z,84.40
2019-02-02T09:18:38.211Z,84.20
2019-02-02T09:21:08.894Z,84.10
2019-02-02T09:23:39.632Z,83.80
2019-02-02T09:26:10.042Z,83.70
2019-02-02T09:28:40.745Z,83.30
2019-02-02T09:31:15.926Z,83.10
2019-02-02T09:33:45.670Z,83.30
2019-02-02T09:36:20.031Z,83.00
2019-02-02T09:38:50.471Z,83.20
2019-02-02T09:41:21.214Z,83.50
2019-02-02T09:43:51.635Z,83.70
2019-02-02T09:46:22.036Z,84.00
2019-02-02T09:48:52.876Z,84.00
2019-02-02T09:51:23.978Z,84.10
2019-02-02T09:53:56.283Z,83.90
2019-02-02T09:56:26.572Z,84.20
2019-02-02T09:58:59.183Z,83.80
2019-02-02T10:01:29.776Z,83.80
2019-02-02T10:04:00.480Z,83.50
2019-02-02T10:06:30.849Z,83.60
2019-02-02T10:09:01.252Z,83.20
2019-02-02T10:11:33.641Z,82.70
2019-02-02T10:14:04.233Z,82.40
2019-02-02T10:16:34.575Z,82.40
2019-02-02T10:19:04.978Z,81.90
2019-02-02T10:21:35.516Z,81.40
2019-02-02T10:24:06.063Z,81.50
2019-02-02T10:26:36.490Z,81.30
2019-02-02T10:29:06.815Z,80.40
2019-02-02T10:31:39.814Z,79.80
2019-02-02T10:34:12.350Z,78.90
2019-02-02T10:36:42.295Z,78.30
2019-02-02T10:39:12.737Z,77.80
2019-02-02T10:41:43.067Z,77.30
2019-02-02T10:44:13.441Z,76.50
2019-02-02T10:46:44.021Z,76.40
2019-02-02T10:49:14.292Z,76.30
2019-02-02T10:51:44.655Z,76.20
2019-02-02T10:54:14.998Z,76.50
2019-02-02T10:56:45.437Z,76.40
2019-02-02T10:59:15.727Z,77.10
2019-02-02T11:01:51.145Z,77.60
2019-02-02T11:04:18.360Z,77.40
2019-02-02T11:06:49.006Z,77.90
2019-02-02T11:09:19.527Z,77.70
2019-02-02T11:11:50.778Z,77.40
2019-02-02T11:30:36.053Z,78.90
2019-02-02T11:33:06.587Z,79.40
2019-02-02T11:35:36.814Z,79.60
2019-02-02T11:38:07.183Z,80.00
2019-02-02T11:40:37.840Z,81.10
2019-02-02T11:43:08.375Z,80.10
2019-02-02T11:45:38.787Z,80.00
2019-02-02T11:48:09.301Z,79.80
2019-02-02T11:50:39.689Z,79.10
2019-02-02T11:53:10.380Z,78.90
2019-02-02T11:55:40.656Z,78.60
2019-02-02T11:58:11.083Z,78.60
2019-02-02T12:00:42.840Z,78.80
2019-02-02T12:03:13.527Z,79.00
2019-02-02T12:05:45.883Z,78.90
2019-02-02T12:08:16.508Z,78.80
2019-02-02T12:10:46.733Z,78.60
2019-02-02T12:13:17.389Z,78.50
2019-02-02T12:15:47.866Z,78.20
2019-02-02T12:18:18.160Z,78.20
2019-02-02T12:20:49.814Z,78.20
2019-02-02T12:23:20.515Z,78.20
2019-02-02T12:25:54.454Z,78.10
2019-02-02T12:28:24.923Z,77.80
2019-02-02T12:30:55.378Z,77.70
2019-02-02T12:33:26.097Z,77.70
2019-02-02T12:35:56.551Z,77.40
2019-02-02T12:38:26.920Z,77.80
2019-02-02T12:40:59.672Z,77.70
2019-02-02T12:43:29.410Z,78.10
2019-02-02T12:45:59.986Z,78.20
2019-02-02T12:48:32.485Z,78.50
2019-02-02T12:51:02.896Z,78.50
2019-02-02T12:53:33.347Z,78.40
2019-02-02T12:56:04.085Z,78.60
2019-02-02T12:58:35.471Z,78.50
2019-02-02T13:01:06.408Z,78.50
2019-02-02T13:03:36.956Z,78.40
2019-02-02T13:06:07.473Z,78.60
2019-02-02T13:08:38.151Z,78.40
2019-02-02T13:11:08.799Z,78.90
2019-02-02T13:13:42.711Z,78.90
2019-02-02T13:16:13.406Z,78.90
2019-02-02T13:18:43.825Z,78.50
2019-02-02T13:21:15.437Z,78.10
2019-02-02T13:23:45.837Z,77.70
2019-02-02T13:26:16.270Z,77.60
2019-02-02T13:28:46.689Z,77.60
2019-02-02T13:31:20.787Z,77.80
2019-02-02T13:33:49.311Z,77.80
2019-02-02T13:36:20.528Z,78.10
2019-02-02T13:38:50.937Z,78.20
2019-02-02T13:41:21.395Z,78.50
2019-02-02T13:43:51.839Z,78.00
2019-02-02T13:46:22.269Z,77.30
2019-02-02T13:48:52.691Z,76.70
2019-02-02T13:51:23.069Z,76.60
2019-02-02T13:53:53.541Z,76.40
2019-02-02T13:56:23.877Z,76.20
2019-02-02T13:58:54.275Z,76.40
2019-02-02T14:01:24.611Z,76.50
2019-02-02T14:03:55.027Z,77.00
2019-02-02T14:06:25.347Z,77.30
2019-02-02T14:08:55.932Z,77.60
2019-02-02T14:11:26.276Z,77.90
2019-02-02T14:13:56.722Z,78.30
2019-02-02T14:16:27.263Z,78.70
2019-02-02T14:18:57.691Z,79.30
2019-02-02T14:21:28.053Z,79.50
2019-02-02T14:23:58.581Z,79.90
2019-02-02T14:26:29.001Z,80.10
2019-02-02T14:28:59.425Z,80.40
2019-02-02T14:31:29.811Z,80.60
2019-02-02T14:34:00.298Z,80.60
2019-02-02T14:36:30.827Z,80.90
2019-02-02T14:39:01.269Z,81.10
2019-02-02T14:41:34.551Z,80.80
2019-02-02T14:44:04.889Z,80.90
2019-02-02T14:46:35.346Z,81.20
2019-02-02T14:49:05.955Z,81.10
2019-02-02T14:51:36.249Z,81.70
2019-02-02T14:54:06.544Z,80.90
2019-02-02T14:56:37.623Z,81.30
2019-02-02T14:59:08.067Z,83.40
2019-02-02T15:04:25.409Z,72.70
2019-02-02T15:06:56.384Z,73.50
2019-02-02T15:09:28.067Z,69.30
2019-02-02T15:11:58.661Z,67.50
2019-02-02T15:14:30.103Z,72.40
2019-02-02T15:17:00.492Z,76.30
2019-02-02T15:19:31.243Z,78.30
2019-02-02T15:22:01.969Z,80.00
2019-02-02T15:24:32.251Z,81.40
2019-02-02T15:27:02.727Z,82.30
2019-02-02T15:29:33.030Z,83.20
2019-02-02T15:32:04.059Z,83.90
2019-02-02T15:34:34.704Z,84.50
2019-02-02T15:37:05.061Z,85.20
2019-02-02T15:39:36.139Z,85.60
2019-02-02T15:42:06.615Z,85.90
2019-02-02T15:44:36.973Z,86.10
2019-02-02T15:47:07.388Z,86.50
2019-02-02T15:49:38.195Z,86.90
2019-02-02T15:52:08.694Z,87.10
2019-02-02T16:06:20.707Z,87.10
2019-02-02T16:08:51.151Z,87.30
2019-02-02T16:11:22.049Z,87.20
2019-02-02T16:13:52.647Z,86.90
2019-02-02T16:16:23.079Z,86.80
2019-02-02T16:18:54.183Z,86.90
2019-02-02T16:21:24.564Z,87.10
2019-02-02T16:23:55.223Z,87.30
2019-02-02T16:26:25.737Z,87.50
2019-02-02T16:28:56.135Z,87.60
2019-02-02T16:31:26.700Z,87.80
2019-02-02T16:34:02.191Z,87.80
2019-02-02T16:36:29.053Z,88.00
2019-02-02T16:38:59.339Z,88.00
2019-02-02T16:41:29.750Z,88.20
2019-02-02T16:44:00.105Z,88.40
2019-02-02T16:46:30.553Z,88.50
2019-02-02T16:49:01.004Z,88.60
2019-02-02T16:51:31.401Z,88.50
2019-02-02T16:54:02.059Z,88.60
2019-02-02T16:56:32.516Z,88.60
2019-02-02T16:59:04.016Z,88.50
2019-02-02T17:01:34.383Z,88.50
2019-02-02T17:04:15.329Z,88.60
2019-02-02T17:06:36.765Z,88.90
2019-02-02T17:09:08.986Z,89.10
2019-02-02T17:11:39.373Z,89.10
2019-02-02T17:14:09.699Z,89.30
2019-02-02T17:16:40.221Z,89.50
2019-02-02T17:19:10.662Z,89.70
2019-02-02T17:21:41.536Z,89.70
2019-02-02T17:24:13.055Z,89.90
2019-02-02T17:26:43.464Z,89.90
2019-02-02T17:29:14.817Z,89.80
2019-02-02T17:31:45.320Z,90.40
2019-02-02T17:34:26.612Z,90.10
2019-02-02T17:36:47.724Z,90.20
2019-02-02T17:39:18.527Z,90.40
2019-02-02T17:41:49.217Z,90.40
2019-02-02T17:44:19.722Z,90.50
2019-02-02T17:46:50.177Z,90.40
2019-02-02T17:49:21.174Z,90.50
2019-02-02T17:51:51.502Z,90.50
2019-02-02T17:54:22.245Z,90.50
2019-02-02T17:56:52.562Z,90.60
2019-02-02T17:59:23.125Z,91.20
2019-02-02T18:01:54.868Z,91.30
2019-02-02T18:04:26.585Z,91.30
2019-02-02T18:06:57.779Z,91.40
2019-02-02T18:09:28.235Z,91.40
2019-02-02T18:11:58.655Z,90.80
2019-02-02T18:14:29.329Z,90.90
2019-02-02T18:16:59.865Z,90.70
2019-02-02T18:19:30.583Z,90.70
2019-02-02T18:22:00.899Z,90.60
2019-02-02T18:24:31.322Z,90.50
2019-02-02T18:27:01.668Z,90.40
2019-02-02T18:29:32.648Z,90.40
2019-02-02T18:32:12.734Z,90.30
2019-02-02T18:34:35.407Z,90.30
2019-02-02T18:37:05.845Z,90.10
2019-02-02T18:39:36.236Z,90.20
2019-02-02T18:42:06.532Z,90.20
2019-02-02T18:44:37.093Z,90.40
2019-02-02T18:47:07.576Z,90.30
2019-02-02T18:49:39.175Z,90.30
2019-02-02T18:52:09.681Z,90.30
2019-02-02T18:54:40.011Z,90.30
2019-02-02T18:57:10.430Z,90.30
2019-02-02T18:59:41.123Z,90.30
2019-02-02T19:02:11.473Z,90.50
2019-02-02T19:04:41.975Z,90.60
2019-02-02T19:07:12.455Z,90.60
2019-02-02T19:09:42.789Z,90.80
2019-02-02T19:12:13.228Z,90.70
2019-02-02T19:14:43.906Z,91.40
2019-02-02T19:17:14.156Z,91.50
2019-02-02T19:19:44.499Z,91.40
2019-02-02T19:22:14.781Z,91.50
2019-02-02T19:24:45.099Z,91.60
2019-02-02T19:27:15.472Z,91.80
2019-02-02T19:29:45.916Z,92.00
2019-02-02T19:32:16.329Z,92.10
2019-02-02T19:34:46.852Z,92.20
2019-02-02T19:37:17.404Z,92.30
2019-02-02T19:39:48.162Z,92.40
2019-02-02T19:42:18.679Z,92.50
2019-02-02T19:44:48.983Z,92.60
2019-02-02T19:47:19.310Z,92.60
2019-02-02T19:49:49.734Z,92.70
2019-02-02T19:52:20.157Z,92.80
2019-02-02T19:54:50.917Z,92.90
2019-02-02T19:57:21.242Z,92.80
2019-02-02T19:59:51.743Z,92.60
2019-02-02T20:02:22.192Z,92.40
2019-02-02T20:04:52.748Z,92.60
2019-02-02T20:07:23.151Z,92.80
2019-02-02T20:09:53.496Z,93.00
2019-02-02T20:12:25.037Z,93.20
2019-02-02T20:14:55.593Z,93.30
2019-02-02T20:17:26.134Z,93.40
2019-02-02T20:19:56.421Z,93.40
2019-02-02T20:22:26.930Z,93.50
2019-02-02T20:24:57.511Z,93.70
2019-02-02T20:27:29.066Z,93.60
2019-02-02T20:30:01.719Z,93.60
2019-02-02T20:32:33.831Z,94.00
2019-02-02T20:35:04.431Z,93.50
2019-02-02T20:37:35.086Z,93.20
2019-02-02T20:40:06.855Z,93.20
2019-02-02T20:42:37.294Z,93.40
2019-02-02T20:45:10.143Z,93.40
2019-02-02T20:47:40.602Z,93.40
2019-02-02T20:50:13.769Z,93.40
2019-02-02T20:52:47.658Z,93.30
2019-02-02T20:55:18.932Z,93.20
2019-02-02T20:57:49.892Z,93.40
2019-02-02T21:00:22.415Z,93.40
2019-02-02T21:02:52.734Z,93.40
2019-02-02T21:05:23.033Z,93.30
2019-02-02T21:07:53.423Z,93.40
2019-02-02T21:10:25.894Z,93.40
2019-02-02T21:12:56.581Z,93.30
2019-02-02T21:15:27.098Z,93.40
2019-02-02T21:17:57.428Z,93.40
2019-02-02T21:20:29.036Z,93.20
2019-02-02T21:23:00.501Z,93.20
2019-02-02T21:25:31.066Z,93.30
2019-02-02T21:28:01.541Z,93.20
2019-02-02T21:30:33.987Z,93.20
2019-02-02T21:33:04.778Z,93.20
2019-02-02T21:35:35.170Z,93.20
2019-02-02T21:38:05.713Z,93.00
2019-02-02T21:40:36.488Z,92.70
2019-02-02T21:43:08.418Z,92.40
2019-02-02T21:45:39.043Z,92.20
2019-02-02T21:48:09.586Z,92.30
2019-02-02T21:50:39.922Z,92.60
2019-02-02T21:53:10.285Z,92.80
2019-02-02T21:55:40.577Z,93.00
2019-02-02T21:58:11.056Z,93.30
2019-02-02T22:00:42.782Z,93.40
2019-02-02T22:03:13.083Z,93.60
2019-02-02T22:05:43.439Z,93.70
2019-02-02T22:08:13.232Z,93.80
2019-02-02T22:10:43.874Z,93.90
2019-02-02T22:13:14.615Z,94.20
2019-02-02T22:15:44.880Z,94.70
2019-02-02T22:18:15.351Z,95.10
2019-02-02T22:20:46.007Z,95.50
2019-02-02T22:23:16.774Z,95.90
2019-02-02T22:25:47.201Z,96.20
2019-02-02T22:28:17.589Z,96.20
2019-02-02T22:30:47.991Z,96.60
2019-02-02T22:33:18.481Z,96.80
2019-02-02T22:35:49.051Z,97.00
2019-02-02T22:38:19.607Z,97.20
2019-02-02T22:40:49.922Z,97.30
2019-02-02T22:43:20.965Z,97.50
2019-02-02T22:45:51.854Z,97.60
2019-02-02T22:48:22.282Z,97.80
2019-02-02T22:50:52.658Z,97.80
2019-02-02T22:53:23.091Z,97.90
2019-02-02T22:55:53.338Z,98.00
2019-02-02T22:58:23.700Z,98.20
2019-02-02T23:01:30.366Z,98.40
2019-02-02T23:04:18.926Z,98.50
2019-02-02T23:07:25.506Z,98.30
2019-02-02T23:10:51.893Z,98.00
2019-02-02T23:13:35.559Z,97.30
2019-02-02T23:16:24.622Z,97.60
2019-02-02T23:18:55.505Z,97.60
2019-02-02T23:21:26.348Z,97.60
2019-02-02T23:23:57.113Z,97.70
2019-02-02T23:26:27.633Z,97.70
2019-02-02T23:28:57.958Z,97.70
2019-02-02T23:31:28.388Z,97.60
2019-02-02T23:33:58.831Z,98.00
2019-02-02T23:36:29.162Z,97.60
2019-02-02T23:39:00.613Z,97.60
2019-02-02T23:41:32.760Z,97.50
2019-02-02T23:44:04.335Z,97.60
2019-02-02T23:46:34.638Z,97.70
2019-02-02T23:49:05.064Z,97.70
2019-02-02T23:51:35.408Z,97.60
2019-02-02T23:54:05.653Z,97.50
2019-02-02T23:56:36.034Z,97.30
2019-02-02T23:59:06.494Z,97.30
